Terminal Aerodrome Forecast
Issued by NWS Sioux Falls, SD

Home | Current Version | Previous Version | Graphics & Text | Print | Product List | Glossary Off
Versions: 1 2 3 4 5 6 7 8 9 10 11 12 13 14 15 16 17 18

000
FTUS43 KFSD 251137
TAFFSD
TAF
KFSD 251137Z 2512/2612 23004KT P6SM OVC080
     FM251600 18010KT P6SM BKN200
     FM260000 16013KT P6SM OVC070
     FM260200 15009KT 2SM -SN OVC025
     FM260600 VRB05KT 1 1/2SM -SN OVC010
     FM260900 36011KT 2SM -SN OVC007=

USA.gov is the U.S. government's official web portal to all federal, state and local government web resources and services.